Time;durP1;ratioP1;P1;durP2;ratioP2;P2;SDS_P1;SDS_P2;PMS_P1;PMS_P2;Temp;Humidity;BMP_temperature;BMP_pressure;BME280_temperature;BME280_humidity;BME280_pressure;Samples;Min_cycle;Max_cycle;Signal;HPM_P1;HPM_P2
2021/08/04 00:01:49;;;;;;;4.53;4.07;;;21.10;94.10;;;;;;5106262;27;21025;-63
2021/08/04 00:04:16;;;;;;;2.97;2.67;;;21.10;94.20;;;;;;5106572;28;20471;-64
2021/08/04 00:06:43;;;;;;;4.43;3.90;;;21.00;94.30;;;;;;5106032;27;20479;-64
2021/08/04 00:09:11;;;;;;;4.30;3.90;;;21.00;94.40;;;;;;5106310;27;20530;-65
2021/08/04 00:11:38;;;;;;;3.27;3.00;;;21.00;94.50;;;;;;5105738;28;20482;-65
2021/08/04 00:14:05;;;;;;;4.30;3.30;;;21.00;94.70;;;;;;5105213;28;20460;-65
2021/08/04 00:16:33;;;;;;;4.90;3.90;;;20.90;94.60;;;;;;5107208;27;20468;-65
2021/08/04 00:19:00;;;;;;;3.87;3.57;;;20.90;94.70;;;;;;5107626;28;20559;-64
2021/08/04 00:21:27;;;;;;;5.07;4.57;;;20.90;94.90;;;;;;5107268;27;20526;-65
2021/08/04 00:23:54;;;;;;;4.10;3.80;;;20.90;95.00;;;;;;5106152;27;20467;-64
2021/08/04 00:26:22;;;;;;;6.73;4.07;;;20.90;95.10;;;;;;5106067;27;20553;-64
2021/08/04 00:28:49;;;;;;;4.97;4.57;;;20.80;95.20;;;;;;5105680;27;23042;-65
2021/08/04 00:31:17;;;;;;;3.63;3.33;;;20.80;95.40;;;;;;5106926;27;20477;-65
2021/08/04 00:33:44;;;;;;;6.43;4.40;;;20.80;95.50;;;;;;5106656;27;20810;-64
2021/08/04 00:36:11;;;;;;;4.97;4.47;;;20.80;95.50;;;;;;5109096;27;20521;-65
2021/08/04 00:38:38;;;;;;;4.30;3.90;;;20.80;95.60;;;;;;5112951;27;20469;-65
2021/08/04 00:41:05;;;;;;;3.30;3.10;;;20.80;95.60;;;;;;5113558;27;20844;-65
2021/08/04 00:43:33;;;;;;;5.13;3.17;;;20.70;95.70;;;;;;5112827;27;20517;-65
2021/08/04 00:46:00;;;;;;;6.47;5.87;;;20.70;95.70;;;;;;5113554;27;20534;-64
2021/08/04 00:48:27;;;;;;;7.10;6.40;;;20.70;95.70;;;;;;5113156;27;20532;-65
2021/08/04 00:50:54;;;;;;;9.63;8.80;;;20.70;95.50;;;;;;5112837;27;20456;-64
2021/08/04 00:53:23;;;;;;;15.13;13.53;;;20.70;95.50;;;;;;5113209;27;20521;-64
2021/08/04 00:55:51;;;;;;;13.23;11.93;;;20.70;95.40;;;;;;5112817;27;20514;-65
2021/08/04 00:58:19;;;;;;;13.50;12.03;;;20.70;95.50;;;;;;5113069;27;20513;-64
2021/08/04 01:00:50;;;;;;;10.00;8.20;;;20.70;95.60;;;;;;5112668;27;20521;-65
2021/08/04 01:03:19;;;;;;;6.83;6.23;;;20.60;95.90;;;;;;5113164;27;20464;-65
2021/08/04 01:05:52;;;;;;;5.70;5.07;;;20.60;96.10;;;;;;5112703;27;20810;-64
2021/08/04 01:08:24;;;;;;;4.90;4.50;;;20.60;96.30;;;;;;5113140;27;21016;-64
2021/08/04 01:10:53;;;;;;;3.60;3.30;;;20.60;96.50;;;;;;5112380;27;20460;-65
2021/08/04 01:13:25;;;;;;;39.17;30.37;;;20.50;96.80;;;;;;5112210;27;20856;-65
2021/08/04 01:16:01;;;;;;;14.23;12.80;;;20.50;97.00;;;;;;5112505;27;20497;-65
2021/08/04 01:18:31;;;;;;;5.17;4.30;;;20.60;97.30;;;;;;5113228;27;20505;-64
2021/08/04 01:20:58;;;;;;;4.20;3.80;;;20.50;97.50;;;;;;5112844;27;20910;-64
2021/08/04 01:23:33;;;;;;;4.07;3.00;;;20.50;97.60;;;;;;5113512;27;21026;-64
2021/08/04 01:26:03;;;;;;;5.60;4.50;;;20.50;97.80;;;;;;5116815;27;20463;-64
2021/08/04 01:28:35;;;;;;;5.83;5.33;;;20.40;97.90;;;;;;5117113;27;20521;-65
2021/08/04 01:31:06;;;;;;;4.73;4.33;;;20.40;97.90;;;;;;5116818;27;21040;-65
2021/08/04 01:33:35;;;;;;;3.93;3.60;;;20.40;98.10;;;;;;5117118;27;20464;-64
2021/08/04 01:36:03;;;;;;;3.40;3.10;;;20.40;98.10;;;;;;5116812;27;20465;-64
2021/08/04 01:38:31;;;;;;;4.03;3.73;;;20.40;98.30;;;;;;5117038;27;20475;-63
2021/08/04 01:40:59;;;;;;;3.57;2.93;;;20.40;98.40;;;;;;5116473;27;20602;-63
2021/08/04 01:43:27;;;;;;;4.03;3.63;;;20.30;98.70;;;;;;5116864;27;20464;-63
2021/08/04 01:45:57;;;;;;;5.30;3.63;;;20.30;98.80;;;;;;5116153;27;20468;-64
2021/08/04 01:48:25;;;;;;;4.10;3.70;;;20.30;99.00;;;;;;5116667;27;20476;-63
2021/08/04 01:50:55;;;;;;;3.10;2.90;;;20.30;99.00;;;;;;5116425;27;20472;-64
2021/08/04 01:53:23;;;;;;;4.00;3.70;;;20.20;99.20;;;;;;5116760;27;20776;-64
2021/08/04 01:55:50;;;;;;;5.07;4.30;;;20.20;99.10;;;;;;5116024;27;20452;-65
2021/08/04 01:58:17;;;;;;;4.63;4.33;;;20.20;99.20;;;;;;5116815;27;20472;-64
2021/08/04 02:00:44;;;;;;;3.60;3.40;;;20.10;99.20;;;;;;5116010;27;21023;-64
2021/08/04 02:03:12;;;;;;;4.87;3.43;;;20.10;99.40;;;;;;5116431;27;20464;-64
2021/08/04 02:05:39;;;;;;;4.00;3.10;;;20.10;99.60;;;;;;5116050;27;21014;-65
2021/08/04 02:08:17;;;;;;;3.60;3.33;;;20.10;99.70;;;;;;5116239;27;20460;-65
2021/08/04 02:10:51;;;;;;;4.57;3.83;;;20.10;99.80;;;;;;5115923;27;20909;-64
2021/08/04 02:13:26;;;;;;;4.73;3.30;;;20.10;99.80;;;;;;5116205;27;20540;-64
2021/08/04 02:16:00;;;;;;;5.23;4.37;;;20.10;99.80;;;;;;5115849;27;20529;-64
2021/08/04 02:18:31;;;;;;;5.50;5.07;;;20.10;99.90;;;;;;5116163;27;20472;-64
2021/08/04 02:21:01;;;;;;;4.97;4.33;;;20.10;99.90;;;;;;5115893;27;20547;-64
2021/08/04 02:23:32;;;;;;;4.03;3.63;;;20.10;99.90;;;;;;5116111;27;20464;-65
2021/08/04 02:26:03;;;;;;;4.30;3.90;;;20.00;99.90;;;;;;5115787;27;20811;-64
2021/08/04 02:28:33;;;;;;;6.10;4.07;;;20.00;99.90;;;;;;5115936;27;20460;-65
2021/08/04 02:31:02;;;;;;;4.20;3.90;;;20.00;99.90;;;;;;5115483;27;20537;-65
2021/08/04 02:33:31;;;;;;;3.83;3.53;;;20.00;99.90;;;;;;5116038;27;20543;-64
2021/08/04 02:35:59;;;;;;;3.70;3.20;;;20.00;99.90;;;;;;5114582;27;20468;-64
2021/08/04 02:38:26;;;;;;;4.80;4.30;;;20.00;99.90;;;;;;5115836;27;20479;-64
2021/08/04 02:40:53;;;;;;;4.20;3.90;;;20.00;99.90;;;;;;5115490;27;21023;-64
2021/08/04 02:43:24;;;;;;;4.13;3.83;;;19.90;99.90;;;;;;5115679;27;20960;-65
2021/08/04 02:45:52;;;;;;;4.23;3.67;;;19.90;99.90;;;;;;5114873;27;20763;-65
2021/08/04 02:48:20;;;;;;;4.70;3.40;;;19.90;99.90;;;;;;5115671;27;20472;-64
2021/08/04 02:50:58;;;;;;;4.00;3.60;;;19.90;99.90;;;;;;5115255;27;20541;-64
2021/08/04 02:53:25;;;;;;;7.20;4.63;;;19.90;99.90;;;;;;5115439;27;21031;-65
2021/08/04 02:55:53;;;;;;;4.33;4.03;;;19.90;99.90;;;;;;5115043;27;20460;-64
2021/08/04 02:58:21;;;;;;;4.17;3.77;;;19.90;99.90;;;;;;5115505;27;20468;-65
2021/08/04 03:00:48;;;;;;;4.73;4.40;;;19.90;99.90;;;;;;5114893;27;20468;-65
2021/08/04 03:03:15;;;;;;;3.83;3.53;;;19.90;99.90;;;;;;5115256;27;20950;-64
2021/08/04 03:05:42;;;;;;;4.20;3.80;;;19.90;99.90;;;;;;5115142;27;20521;-64
2021/08/04 03:08:10;;;;;;;4.13;3.73;;;19.90;99.90;;;;;;5114749;27;20465;-65
2021/08/04 03:10:37;;;;;;;3.57;3.37;;;19.80;99.90;;;;;;5115202;27;20606;-65
2021/08/04 03:13:04;;;;;;;4.07;3.40;;;19.80;99.90;;;;;;5114816;27;20468;-65
2021/08/04 03:15:33;;;;;;;3.70;3.40;;;19.80;99.90;;;;;;5115132;27;20484;-65
2021/08/04 03:18:00;;;;;;;5.37;3.40;;;19.80;99.90;;;;;;5114584;27;20468;-64
2021/08/04 03:20:27;;;;;;;4.23;3.40;;;19.90;99.90;;;;;;5115168;27;20527;-64
2021/08/04 03:22:53;;;;;;;5.80;3.97;;;19.90;99.90;;;;;;5114573;27;20545;-65
2021/08/04 03:25:22;;;;;;;4.03;3.70;;;19.80;99.90;;;;;;5114893;27;20460;-64
2021/08/04 03:27:49;;;;;;;5.33;3.93;;;19.80;99.90;;;;;;5114387;27;20468;-65
2021/08/04 03:30:16;;;;;;;4.30;4.00;;;19.80;99.90;;;;;;5114660;27;20867;-65
2021/08/04 03:32:43;;;;;;;3.93;3.63;;;19.90;99.90;;;;;;5114826;27;20529;-65
2021/08/04 03:35:11;;;;;;;4.20;3.80;;;19.90;99.90;;;;;;5114288;27;20464;-64
2021/08/04 03:37:38;;;;;;;5.57;3.77;;;19.90;99.90;;;;;;5114658;27;20464;-65
2021/08/04 03:40:06;;;;;;;3.47;3.17;;;19.90;99.90;;;;;;5114349;27;20522;-65
2021/08/04 03:42:35;;;;;;;5.30;4.20;;;19.90;99.90;;;;;;5114492;27;20461;-64
2021/08/04 03:45:02;;;;;;;4.30;3.90;;;19.80;99.90;;;;;;5114035;27;20584;-65
2021/08/04 03:47:29;;;;;;;4.10;3.70;;;19.90;99.90;;;;;;5113319;27;20791;-64
2021/08/04 03:49:56;;;;;;;4.57;4.27;;;19.90;99.90;;;;;;5114082;27;20460;-65
2021/08/04 03:52:23;;;;;;;5.17;4.77;;;19.90;99.90;;;;;;5114278;27;20468;-65
2021/08/04 03:54:50;;;;;;;4.30;3.90;;;19.90;99.90;;;;;;5113946;27;20533;-64
2021/08/04 03:57:17;;;;;;;4.47;4.07;;;19.90;99.90;;;;;;5114292;27;20464;-64
2021/08/04 03:59:45;;;;;;;4.07;3.77;;;19.80;99.90;;;;;;5113992;27;20848;-65
2021/08/04 04:02:12;;;;;;;5.40;4.47;;;19.90;99.90;;;;;;5113886;27;20468;-65
2021/08/04 04:04:39;;;;;;;4.23;3.90;;;19.80;99.90;;;;;;5114145;27;20468;-65
2021/08/04 04:07:06;;;;;;;4.60;4.20;;;19.90;99.90;;;;;;5113628;27;20464;-64
2021/08/04 04:09:34;;;;;;;3.40;3.20;;;19.90;99.90;;;;;;5114060;27;20530;-65
2021/08/04 04:12:01;;;;;;;4.97;3.90;;;19.90;99.90;;;;;;5113644;27;20464;-64
2021/08/04 04:14:28;;;;;;;4.63;4.23;;;19.90;99.90;;;;;;5113968;27;20465;-64
2021/08/04 04:16:56;;;;;;;7.27;4.23;;;19.80;99.90;;;;;;5113459;27;20457;-65
2021/08/04 04:19:23;;;;;;;4.43;3.47;;;19.80;99.90;;;;;;5113638;27;20534;-64
2021/08/04 04:21:50;;;;;;;4.03;3.73;;;19.80;99.90;;;;;;5113373;27;20469;-65
2021/08/04 04:24:17;;;;;;;4.20;3.80;;;19.80;99.90;;;;;;5113783;27;20848;-65
2021/08/04 04:26:44;;;;;;;5.57;5.07;;;19.80;99.90;;;;;;5113494;27;20525;-64
2021/08/04 04:29:11;;;;;;;4.63;4.23;;;19.80;99.90;;;;;;5113019;27;20975;-64
2021/08/04 04:31:38;;;;;;;4.47;4.17;;;19.80;99.90;;;;;;5113475;27;20464;-65
2021/08/04 04:34:06;;;;;;;4.90;4.27;;;19.80;99.90;;;;;;5113044;27;20526;-65
2021/08/04 04:36:33;;;;;;;4.70;4.40;;;19.70;99.90;;;;;;5113693;27;20469;-64
2021/08/04 04:39:00;;;;;;;12.17;4.60;;;19.70;99.90;;;;;;5113090;27;20809;-64
2021/08/04 04:41:27;;;;;;;4.40;3.97;;;19.80;99.90;;;;;;5113544;27;20480;-65
2021/08/04 04:43:54;;;;;;;4.60;4.30;;;19.80;99.90;;;;;;5113102;27;20464;-65
2021/08/04 04:46:21;;;;;;;4.97;4.57;;;19.80;99.90;;;;;;5113198;27;20468;-65
2021/08/04 04:48:47;;;;;;;5.00;4.60;;;19.70;99.90;;;;;;5113338;27;20475;-64
2021/08/04 04:51:16;;;;;;;4.53;4.20;;;19.80;99.90;;;;;;5113008;27;20460;-64
2021/08/04 04:53:43;;;;;;;5.10;4.60;;;19.70;99.90;;;;;;5113357;27;20525;-64
2021/08/04 04:56:09;;;;;;;5.00;4.60;;;19.70;99.90;;;;;;5112776;27;20468;-65
2021/08/04 04:58:36;;;;;;;4.87;4.43;;;19.70;99.90;;;;;;5113046;27;20538;-65
2021/08/04 05:01:03;;;;;;;5.03;4.63;;;19.70;99.90;;;;;;5112803;27;20559;-64
2021/08/04 05:03:31;;;;;;;5.63;5.23;;;19.60;99.90;;;;;;5113372;27;20523;-65
2021/08/04 05:05:57;;;;;;;5.00;4.60;;;19.60;99.90;;;;;;5112828;27;20464;-64
2021/08/04 05:08:26;;;;;;;5.90;5.30;;;19.70;99.90;;;;;;5113009;27;20467;-65
2021/08/04 05:10:53;;;;;;;6.90;5.00;;;19.70;99.90;;;;;;5113324;27;20856;-64
2021/08/04 05:13:20;;;;;;;5.07;4.63;;;19.70;99.90;;;;;;5112972;27;20481;-65
2021/08/04 05:15:47;;;;;;;6.40;5.77;;;19.70;99.90;;;;;;5112978;27;20468;-64
2021/08/04 05:18:14;;;;;;;5.83;5.33;;;19.70;99.90;;;;;;5112693;27;20465;-64
2021/08/04 05:20:41;;;;;;;5.03;4.50;;;19.70;99.90;;;;;;5113060;27;20982;-65
2021/08/04 05:23:08;;;;;;;5.50;5.07;;;19.70;99.90;;;;;;5112558;27;20464;-64
2021/08/04 05:25:38;;;;;;;5.67;5.07;;;19.70;99.90;;;;;;5113082;27;20461;-64
2021/08/04 05:28:05;;;;;;;5.77;5.27;;;19.70;99.90;;;;;;5112351;27;20536;-64
2021/08/04 05:30:32;;;;;;;6.40;5.90;;;19.60;99.90;;;;;;5113042;27;20903;-64
2021/08/04 05:32:59;;;;;;;5.77;5.17;;;19.60;99.90;;;;;;5112697;27;20461;-65
2021/08/04 05:35:26;;;;;;;5.73;5.33;;;19.60;99.90;;;;;;5112822;27;20526;-64
2021/08/04 05:37:53;;;;;;;7.30;5.73;;;19.70;99.90;;;;;;5112836;27;20968;-64
2021/08/04 05:40:20;;;;;;;5.90;5.00;;;19.70;99.90;;;;;;5112638;27;20512;-64
2021/08/04 05:42:48;;;;;;;6.00;5.50;;;19.70;99.90;;;;;;5112996;27;20476;-64
2021/08/04 05:45:15;;;;;;;6.20;5.63;;;19.80;99.90;;;;;;5112188;27;20528;-65
2021/08/04 05:47:42;;;;;;;6.57;5.90;;;19.90;99.90;;;;;;5112748;27;20802;-64
2021/08/04 05:50:10;;;;;;;6.20;5.70;;;19.90;99.90;;;;;;5112446;27;20468;-65
2021/08/04 05:52:37;;;;;;;6.80;5.30;;;20.00;99.90;;;;;;5112900;27;20468;-65
2021/08/04 05:55:05;;;;;;;7.27;6.57;;;19.90;99.90;;;;;;5112534;27;20852;-65
2021/08/04 05:57:32;;;;;;;6.17;5.57;;;20.00;99.90;;;;;;5112769;27;20920;-65
2021/08/04 06:00:01;;;;;;;6.30;5.53;;;20.00;99.90;;;;;;5112284;27;20525;-65
2021/08/04 06:02:28;;;;;;;5.53;5.03;;;20.10;99.90;;;;;;5112698;27;20465;-65
2021/08/04 06:04:54;;;;;;;6.43;6.00;;;20.10;99.90;;;;;;5112681;27;20517;-65
2021/08/04 06:07:22;;;;;;;5.80;5.30;;;20.10;99.90;;;;;;5112330;27;20535;-65
2021/08/04 06:09:49;;;;;;;7.00;6.40;;;20.20;99.90;;;;;;5112527;27;20544;-63
2021/08/04 06:12:15;;;;;;;5.77;5.27;;;20.10;99.90;;;;;;5115454;27;20465;-65
2021/08/04 06:14:42;;;;;;;5.87;5.47;;;20.20;99.90;;;;;;5116445;27;20533;-65
2021/08/04 06:17:11;;;;;;;7.63;5.13;;;20.20;99.90;;;;;;5115710;27;20517;-65
2021/08/04 06:19:38;;;;;;;5.60;5.10;;;20.20;99.90;;;;;;5115940;27;20959;-65
2021/08/04 06:22:05;;;;;;;5.87;5.47;;;20.20;99.90;;;;;;5115772;27;20468;-65
2021/08/04 06:24:32;;;;;;;6.37;5.87;;;20.30;99.90;;;;;;5116074;27;20464;-65
2021/08/04 06:26:59;;;;;;;5.93;5.30;;;20.30;99.90;;;;;;5115952;27;21037;-65
2021/08/04 06:29:26;;;;;;;5.17;4.77;;;20.30;99.90;;;;;;5115374;27;20491;-65
2021/08/04 06:31:52;;;;;;;7.83;7.13;;;20.40;99.90;;;;;;5115882;27;20468;-65
2021/08/04 06:34:21;;;;;;;10.60;9.50;;;20.40;99.90;;;;;;5115511;27;20494;-65
2021/08/04 06:36:48;;;;;;;7.10;6.60;;;20.40;99.90;;;;;;5115967;27;20472;-65
2021/08/04 06:39:14;;;;;;;7.57;6.87;;;20.50;99.90;;;;;;5115281;27;20472;-65
2021/08/04 06:41:41;;;;;;;6.47;5.77;;;20.50;99.90;;;;;;5115984;27;20472;-65
2021/08/04 06:44:08;;;;;;;7.77;6.97;;;20.50;99.90;;;;;;5115306;27;20464;-65
2021/08/04 06:46:37;;;;;;;7.67;6.30;;;20.60;99.90;;;;;;5115679;27;20525;-65
2021/08/04 06:49:04;;;;;;;6.10;5.60;;;20.60;99.90;;;;;;5115265;27;20477;-65
2021/08/04 06:51:34;;;;;;;5.37;4.87;;;20.60;99.90;;;;;;5115676;27;20847;-65
2021/08/04 06:54:01;;;;;;;5.37;4.97;;;20.60;99.90;;;;;;5115613;27;20945;-65
2021/08/04 06:56:28;;;;;;;5.10;4.70;;;20.60;99.90;;;;;;5115195;27;20464;-65
2021/08/04 06:58:54;;;;;;;5.30;4.43;;;20.70;99.90;;;;;;5115326;27;20472;-65
2021/08/04 07:01:21;;;;;;;5.10;4.57;;;20.70;99.90;;;;;;5114897;27;20521;-65
2021/08/04 07:12:16;;;;;;;5.77;5.27;;;20.80;99.90;;;;;;5012408;28;20474;-64
2021/08/04 07:14:43;;;;;;;5.07;4.67;;;20.90;99.90;;;;;;5012830;28;20932;-65
2021/08/04 07:17:10;;;;;;;4.40;4.10;;;20.90;99.90;;;;;;5047514;27;20545;-64
2021/08/04 07:19:37;;;;;;;5.13;4.63;;;21.00;99.90;;;;;;5114861;27;20461;-64
2021/08/04 07:22:05;;;;;;;5.03;4.63;;;21.10;99.90;;;;;;5114854;27;20883;-64
2021/08/04 07:24:32;;;;;;;5.50;5.10;;;21.20;99.90;;;;;;5114580;27;20464;-64
2021/08/04 07:26:59;;;;;;;4.47;4.07;;;21.20;99.80;;;;;;5114732;27;20472;-64
2021/08/04 07:29:26;;;;;;;5.13;4.73;;;21.20;99.60;;;;;;5114223;27;20472;-64
2021/08/04 07:31:53;;;;;;;5.67;5.00;;;21.20;99.50;;;;;;5114756;27;20469;-64
2021/08/04 07:34:24;;;;;;;4.97;4.57;;;21.20;99.40;;;;;;5114308;27;20481;-64
2021/08/04 07:36:51;;;;;;;4.37;3.97;;;21.30;99.30;;;;;;5114731;27;20461;-64
2021/08/04 07:39:20;;;;;;;7.27;4.30;;;21.30;99.30;;;;;;5114014;27;20840;-64
2021/08/04 07:41:48;;;;;;;5.03;4.00;;;21.40;99.10;;;;;;5114783;27;20541;-64
2021/08/04 07:44:14;;;;;;;4.30;3.90;;;21.50;99.10;;;;;;5114162;27;20525;-64
2021/08/04 07:46:41;;;;;;;4.37;3.97;;;21.50;99.00;;;;;;5114260;27;20468;-64
2021/08/04 07:49:08;;;;;;;4.37;3.97;;;21.60;98.70;;;;;;5114291;27;21016;-64
2021/08/04 07:51:35;;;;;;;4.10;3.70;;;21.70;98.70;;;;;;5114014;27;21811;-64
2021/08/04 07:54:02;;;;;;;6.90;4.60;;;21.70;98.60;;;;;;5113762;27;20521;-64
2021/08/04 07:56:32;;;;;;;4.27;3.87;;;21.70;98.10;;;;;;5114034;27;20522;-64
2021/08/04 07:59:02;;;;;;;4.33;4.03;;;21.80;98.10;;;;;;5114067;27;20464;-64
2021/08/04 08:01:29;;;;;;;5.00;4.60;;;21.80;98.40;;;;;;5113914;27;20468;-64
2021/08/04 08:03:56;;;;;;;4.87;4.20;;;21.90;98.10;;;;;;5114416;27;20543;-64
2021/08/04 08:06:24;;;;;;;3.90;3.60;;;21.90;98.40;;;;;;5113578;27;20981;-64
2021/08/04 08:08:51;;;;;;;4.40;4.10;;;22.00;98.10;;;;;;5114056;27;20490;-65
2021/08/04 08:11:18;;;;;;;5.20;4.80;;;22.10;98.10;;;;;;5113729;27;20483;-65
2021/08/04 08:13:46;;;;;;;6.90;3.93;;;22.10;97.90;;;;;;5113871;27;20521;-65
2021/08/04 08:16:13;;;;;;;8.40;4.60;;;22.20;97.60;;;;;;5113634;27;20472;-65
2021/08/04 08:18:40;;;;;;;4.97;4.33;;;22.20;97.60;;;;;;5113934;27;20488;-64
2021/08/04 08:21:07;;;;;;;5.57;4.37;;;22.20;97.50;;;;;;5113813;27;20970;-65
2021/08/04 08:23:34;;;;;;;4.73;4.33;;;22.30;97.50;;;;;;5113418;27;20457;-65
2021/08/04 08:26:01;;;;;;;4.90;4.50;;;22.30;97.60;;;;;;5113906;27;20573;-64
2021/08/04 08:28:28;;;;;;;4.33;4.03;;;22.30;97.50;;;;;;5112953;27;20993;-65
2021/08/04 08:30:56;;;;;;;4.13;3.83;;;22.30;97.50;;;;;;5113659;27;20542;-65
2021/08/04 08:33:23;;;;;;;4.43;4.13;;;22.30;97.60;;;;;;5112813;27;20465;-65
2021/08/04 08:35:50;;;;;;;5.00;4.60;;;22.40;97.60;;;;;;5113518;27;20468;-65
2021/08/04 08:38:17;;;;;;;4.70;4.30;;;22.40;97.50;;;;;;5113179;27;20465;-65
2021/08/04 08:40:46;;;;;;;5.57;4.40;;;22.40;97.40;;;;;;5113620;27;20959;-65
2021/08/04 08:43:15;;;;;;;5.33;4.20;;;22.40;97.30;;;;;;5113652;27;20539;-65
2021/08/04 08:45:42;;;;;;;5.40;4.80;;;22.50;97.30;;;;;;5113160;27;20529;-64
2021/08/04 08:48:11;;;;;;;4.47;4.17;;;22.40;97.20;;;;;;5113231;27;20476;-65
2021/08/04 08:50:41;;;;;;;5.33;4.77;;;22.50;97.40;;;;;;5112866;27;20476;-65
2021/08/04 08:53:08;;;;;;;3.87;3.47;;;22.50;97.30;;;;;;5113319;27;20464;-65
2021/08/04 08:55:35;;;;;;;6.23;4.80;;;22.50;97.20;;;;;;5112941;27;20468;-65
2021/08/04 08:58:02;;;;;;;4.37;4.00;;;22.50;97.30;;;;;;5113272;27;20543;-65
2021/08/04 09:00:29;;;;;;;6.63;6.03;;;22.50;97.20;;;;;;5112856;27;20476;-65
2021/08/04 09:02:56;;;;;;;4.13;3.80;;;22.50;97.20;;;;;;5113259;27;20461;-65
2021/08/04 09:05:24;;;;;;;6.70;4.60;;;22.50;97.10;;;;;;5112863;27;20795;-65
2021/08/04 09:07:52;;;;;;;6.20;4.63;;;22.60;97.00;;;;;;5113195;27;20525;-65
2021/08/04 09:10:26;;;;;;;4.13;3.83;;;22.60;97.00;;;;;;5113266;27;20961;-65
2021/08/04 09:12:56;;;;;;;4.23;3.90;;;22.70;96.20;;;;;;5113179;27;20448;-64
2021/08/04 09:15:28;;;;;;;4.67;3.90;;;22.70;95.40;;;;;;5112995;27;20548;-65
2021/08/04 09:18:03;;;;;;;4.33;3.97;;;22.70;94.80;;;;;;5112894;27;20457;-65
2021/08/04 09:20:42;;;;;;;4.37;3.27;;;22.70;94.60;;;;;;5113256;27;20468;-65
2021/08/04 09:23:13;;;;;;;4.37;3.40;;;22.70;94.60;;;;;;5113410;27;20479;-65
2021/08/04 09:25:40;;;;;;;4.13;3.83;;;22.80;94.60;;;;;;5112768;27;20958;-65
2021/08/04 09:28:08;;;;;;;3.53;3.33;;;22.80;94.50;;;;;;5112902;27;20522;-65
2021/08/04 09:30:37;;;;;;;5.73;3.70;;;22.80;94.50;;;;;;5112488;27;20483;-65
2021/08/04 09:33:13;;;;;;;3.17;2.97;;;22.90;94.50;;;;;;5112928;27;20460;-64
2021/08/04 09:35:48;;;;;;;3.60;3.30;;;22.90;94.40;;;;;;5112736;27;20463;-64
2021/08/04 09:38:16;;;;;;;3.60;3.30;;;23.00;94.50;;;;;;5112905;27;20528;-64
2021/08/04 09:40:43;;;;;;;3.47;3.17;;;23.00;94.00;;;;;;5112525;27;20530;-64
2021/08/04 09:43:11;;;;;;;3.70;3.40;;;23.00;94.20;;;;;;5112875;27;20969;-64
2021/08/04 09:45:41;;;;;;;3.90;3.60;;;23.00;94.20;;;;;;5114862;27;20468;-64
2021/08/04 09:48:11;;;;;;;3.40;3.10;;;23.00;94.30;;;;;;5116492;27;20559;-64
2021/08/04 09:50:47;;;;;;;5.13;3.40;;;23.10;94.40;;;;;;5116278;27;20474;-64
2021/08/04 09:53:19;;;;;;;3.83;3.53;;;23.20;94.40;;;;;;5116756;27;20524;-64
2021/08/04 09:56:05;;;;;;;6.00;3.70;;;23.20;94.20;;;;;;5116577;27;21259;-64
2021/08/04 09:58:32;;;;;;;3.50;3.20;;;23.20;94.00;;;;;;5116260;27;20950;-65
2021/08/04 10:01:01;;;;;;;4.73;3.57;;;23.20;93.60;;;;;;5116533;27;20460;-64
2021/08/04 10:03:29;;;;;;;2.90;2.70;;;23.20;93.40;;;;;;5116173;27;20877;-64
2021/08/04 10:05:58;;;;;;;3.60;3.30;;;23.20;93.30;;;;;;5116653;27;20517;-64
2021/08/04 10:08:25;;;;;;;3.97;3.10;;;23.30;92.90;;;;;;5115850;27;20471;-64
2021/08/04 10:10:54;;;;;;;3.07;2.87;;;23.30;92.20;;;;;;5116504;27;20520;-65
2021/08/04 10:13:23;;;;;;;4.13;3.70;;;23.30;91.50;;;;;;5116469;27;20675;-65
2021/08/04 10:15:52;;;;;;;3.20;2.70;;;23.40;91.70;;;;;;5115774;27;20457;-65
2021/08/04 10:18:21;;;;;;;3.47;3.17;;;23.50;92.00;;;;;;5116192;27;20533;-65
2021/08/04 10:20:51;;;;;;;3.80;3.03;;;23.70;92.60;;;;;;5116069;27;20457;-65
2021/08/04 10:23:21;;;;;;;3.37;3.07;;;23.80;92.00;;;;;;5115972;27;20476;-65
2021/08/04 10:25:48;;;;;;;5.33;3.80;;;23.90;91.30;;;;;;5115691;27;20528;-66
2021/08/04 10:28:17;;;;;;;2.83;2.63;;;23.90;91.10;;;;;;5115964;27;20464;-65
2021/08/04 10:30:45;;;;;;;3.40;3.20;;;23.90;90.90;;;;;;5115440;27;20884;-63
2021/08/04 10:33:13;;;;;;;7.00;3.73;;;24.00;90.60;;;;;;5115826;27;20479;-64
2021/08/04 10:35:46;;;;;;;4.93;2.90;;;23.90;90.70;;;;;;5115524;27;20555;-64
2021/08/04 10:38:16;;;;;;;2.80;2.60;;;24.00;90.10;;;;;;5115729;27;20472;-65
2021/08/04 10:40:45;;;;;;;4.43;3.23;;;23.90;90.30;;;;;;5115377;27;20465;-65
2021/08/04 10:43:37;;;;;;;3.30;3.00;;;23.80;90.00;;;;;;5115782;27;20456;-65
2021/08/04 10:46:43;;;;;;;4.90;2.90;;;23.80;90.10;;;;;;5115953;27;20535;-65
2021/08/04 10:49:19;;;;;;;4.57;3.07;;;23.80;90.40;;;;;;5115263;27;20547;-65
2021/08/04 10:52:11;;;;;;;4.73;2.93;;;23.80;90.80;;;;;;5115541;27;20513;-63
2021/08/04 10:54:53;;;;;;;4.63;3.27;;;23.80;90.80;;;;;;5115363;27;20922;-64
2021/08/04 10:57:20;;;;;;;7.57;3.00;;;23.90;90.80;;;;;;5114728;27;20517;-65
2021/08/04 10:59:47;;;;;;;3.43;3.10;;;23.80;91.60;;;;;;5115020;27;20525;-64
2021/08/04 11:02:42;;;;;;;2.93;2.73;;;23.70;91.30;;;;;;5115449;27;20995;-66
2021/08/04 11:05:19;;;;;;;3.50;3.20;;;23.60;91.30;;;;;;5115515;27;20521;-65
2021/08/04 11:10:59;;;;;;;3.63;3.23;;;23.60;91.40;;;;;;5113410;27;20541;-64
2021/08/04 11:13:54;;;;;;;3.93;3.63;;;23.70;91.10;;;;;;5115198;27;20464;-64
2021/08/04 11:16:31;;;;;;;3.20;2.80;;;23.80;90.60;;;;;;5114926;27;21170;-65
2021/08/04 11:19:08;;;;;;;2.87;2.67;;;23.70;90.50;;;;;;5114599;27;20468;-65
2021/08/04 11:28:14;;;;;;;3.40;3.10;;;23.70;90.60;;;;;;5107806;27;20448;-64
2021/08/04 11:42:08;;;;;;;2.97;2.30;;;23.80;86.50;;;;;;5018109;28;20956;-66
2021/08/04 11:44:36;;;;;;;7.83;2.90;;;23.80;86.90;;;;;;5071481;28;20442;-64
2021/08/04 11:49:52;;;;;;;2.43;2.23;;;23.70;86.60;;;;;;5104704;27;20488;-65
2021/08/04 11:52:21;;;;;;;4.90;2.33;;;23.70;87.10;;;;;;5114294;27;20457;-64
2021/08/04 11:54:50;;;;;;;2.97;2.50;;;23.70;87.20;;;;;;5114441;27;20779;-64
2021/08/04 11:57:28;;;;;;;2.20;2.00;;;23.70;87.60;;;;;;5113909;27;20836;-64
2021/08/04 11:59:58;;;;;;;2.97;2.77;;;23.70;87.10;;;;;;5113862;27;20460;-66
2021/08/04 12:02:26;;;;;;;3.70;2.70;;;23.70;87.90;;;;;;5114098;27;20463;-67
2021/08/04 12:04:55;;;;;;;3.03;2.80;;;23.70;87.40;;;;;;5114327;27;20465;-65
2021/08/04 12:07:26;;;;;;;4.93;2.60;;;23.70;87.50;;;;;;5113615;27;20460;-64
2021/08/04 12:09:54;;;;;;;3.70;3.40;;;23.80;86.90;;;;;;5113200;27;20468;-64
2021/08/04 12:12:24;;;;;;;3.30;3.00;;;23.90;86.40;;;;;;5113638;27;20460;-65
2021/08/04 12:14:52;;;;;;;2.80;2.60;;;23.90;86.10;;;;;;5113941;27;20556;-65
2021/08/04 12:17:24;;;;;;;2.93;2.73;;;23.90;86.40;;;;;;5113407;27;20768;-65
2021/08/04 12:19:53;;;;;;;4.20;2.70;;;23.90;86.80;;;;;;5113696;27;20476;-65
2021/08/04 12:22:24;;;;;;;2.47;2.27;;;23.90;87.30;;;;;;5113433;27;20464;-65
2021/08/04 12:24:54;;;;;;;2.20;2.10;;;24.00;86.30;;;;;;5113900;27;20464;-65
2021/08/04 12:27:40;;;;;;;3.23;2.60;;;24.00;85.70;;;;;;5113263;27;20498;-65
2021/08/04 12:30:14;;;;;;;2.60;2.40;;;24.00;84.50;;;;;;5113085;27;20480;-65
2021/08/04 12:32:57;;;;;;;2.30;2.20;;;23.90;84.40;;;;;;5113605;27;20464;-65
2021/08/04 12:35:26;;;;;;;2.20;2.10;;;24.00;85.90;;;;;;5113140;27;20456;-65
2021/08/04 12:37:55;;;;;;;2.00;1.90;;;24.10;86.40;;;;;;5113475;27;20469;-65
2021/08/04 12:40:24;;;;;;;2.40;2.20;;;24.10;86.10;;;;;;5113085;27;20521;-65
2021/08/04 12:42:51;;;;;;;2.63;2.30;;;24.20;83.00;;;;;;5113312;27;20467;-65
2021/08/04 12:45:22;;;;;;;2.90;2.37;;;24.20;83.60;;;;;;5113142;27;20476;-65
2021/08/04 12:47:58;;;;;;;2.13;2.03;;;24.20;83.90;;;;;;5113250;27;20560;-65
2021/08/04 12:50:27;;;;;;;2.27;2.03;;;24.20;83.40;;;;;;5112842;27;20834;-65
2021/08/04 12:52:56;;;;;;;2.43;2.23;;;24.20;84.20;;;;;;5094869;28;20473;-65
2021/08/04 12:55:24;;;;;;;2.80;2.60;;;24.30;84.60;;;;;;5092563;28;21022;-65
2021/08/04 12:58:02;;;;;;;4.13;2.60;;;24.30;83.50;;;;;;5105528;27;20521;-65
2021/08/04 13:00:31;;;;;;;5.70;2.37;;;24.40;83.20;;;;;;5117038;27;21262;-65
2021/08/04 13:02:58;;;;;;;3.37;2.40;;;24.40;83.50;;;;;;5133699;27;20541;-65
2021/08/04 13:05:26;;;;;;;3.03;2.73;;;24.50;83.60;;;;;;5133154;27;20474;-65
2021/08/04 13:07:54;;;;;;;5.53;3.30;;;24.40;85.00;;;;;;5133643;27;20478;-65
2021/08/04 13:10:39;;;;;;;3.33;2.47;;;24.50;82.40;;;;;;5101846;27;20477;-65
2021/08/04 13:13:07;;;;;;;2.53;2.33;;;24.50;82.00;;;;;;5112479;27;20469;-65
2021/08/04 13:15:45;;;;;;;3.40;3.03;;;24.60;80.90;;;;;;5112780;28;20464;-66
2021/08/04 13:18:13;;;;;;;2.83;2.63;;;24.50;80.80;;;;;;5112170;28;20476;-64
2021/08/04 13:20:42;;;;;;;3.27;2.97;;;24.50;80.40;;;;;;5115319;28;20472;-64
2021/08/04 13:23:11;;;;;;;4.20;3.23;;;24.40;80.60;;;;;;5116929;28;20985;-64
2021/08/04 13:25:57;;;;;;;3.50;2.57;;;24.40;80.70;;;;;;5103261;27;20491;-64
2021/08/04 13:28:37;;;;;;;4.00;3.70;;;24.30;81.20;;;;;;5116385;27;20463;-64